Hovedside
METAR-TAF:

METAR-TAF

Lufthavner :

Brønnøysund lufthavn. Brønnøy

Brønnøysund, Norge

breddegrad: 65-28N, lengdegrad: 012-13E, høyde over havet: 0 m

Gjeldene værobservasjon

Denne rapporten ble laget for 17 minutter siden, klokken 04:50 UTC
Vind 15 kt fra Øst-sørøst
Temperatur 12°C
Luftfuktighet 44%
Trykk 1019 hPa
Sikt 10 km eller mer
ingen skyer under 1500 m og ingen bygeskyer

METAR: ENBN 250450Z 11015KT CAVOK 12/00 Q1019

Tid: 07:07 (05:07 UTC)

Varsel

Denne rapporten ble laget for 7 timer og 32 minutter siden, klokken 21:35 UTC
Varsel gyldig fra 24. klokken 21 UTC til 24. klokken 22 UTC
Vind 9 kt fra Nordøst
Sikt 10 km eller mer
ingen skyer under 1500 m og ingen bygeskyer

TAF: ENBN 242135Z 2421/2422 05009KT CAVOK

Værobservasjoner og værvarsel for over 4000 flyplasser (METAR- og TAF-rapporter).

Tilgjengelige stasjoner er representert av de røde og gule prikkene på kartet.

Hold musepekeren over prikken for å se navnet på stasjonen.

Klikk så for å se værobservasjoner og -varsler.

For å forandre kartet kan du klikke på den grønne knappen med svart kryss for å zoome inn, på den grønne knappen med strek for å zoome ut, eller på de grønne pilene for å se tilstøtende kart.


METAR-TAF: